Time;durP1;ratioP1;P1;durP2;ratioP2;P2;SDS_P1;SDS_P2;PMS_P1;PMS_P2;Temp;Humidity;BMP_temperature;BMP_pressure;BME280_temperature;BME280_humidity;BME280_pressure;Samples;Min_cycle;Max_cycle;Signal;HPM_P1;HPM_P2
2022/05/20 00:00:23;;;;;;;;;;;;;;;22.74;40.62;101509.59;2100442;28;906;-57
2022/05/20 00:01:23;;;;;;;;;;;;;;;22.73;40.86;101505.13;2100533;28;707;-58
2022/05/20 00:02:24;;;;;;;;;;;;;;;22.72;40.46;101506.06;2100713;28;767;-57
2022/05/20 00:03:24;;;;;;;;;;;;;;;22.73;41.44;101506.97;2100576;28;930;-57
2022/05/20 00:04:25;;;;;;;;;;;;;;;22.71;40.86;101506.13;2100596;28;838;-57
2022/05/20 00:05:26;;;;;;;;;;;;;;;22.70;40.85;101498.97;2091657;28;1315;-58
2022/05/20 00:06:27;;;;;;;;;;;;;;;22.69;40.88;101506.16;2092628;28;894;-58
2022/05/20 00:07:27;;;;;;;;;;;;;;;22.68;41.24;101504.41;2100373;28;925;-58
2022/05/20 00:08:28;;;;;;;;;;;;;;;22.69;40.89;101495.34;2100455;28;969;-57
2022/05/20 00:09:28;;;;;;;;;;;;;;;22.68;41.05;101499.00;2100491;28;795;-57
2022/05/20 00:10:29;;;;;;;;;;;;;;;22.67;41.36;101497.22;2100355;28;823;-58
2022/05/20 00:11:29;;;;;;;;;;;;;;;22.65;41.16;101491.88;2100300;28;1876;-57
2022/05/20 00:12:29;;;;;;;;;;;;;;;22.64;41.40;101498.22;2100356;28;1028;-57
2022/05/20 00:13:30;;;;;;;;;;;;;;;22.65;41.45;101494.59;2100387;28;811;-57
2022/05/20 00:14:31;;;;;;;;;;;;;;;22.64;41.32;101491.94;2100410;28;845;-57
2022/05/20 00:15:31;;;;;;;;;;;;;;;22.63;41.69;101496.44;2100297;28;1016;-57
2022/05/20 00:16:34;;;;;;;;;;;;;;;22.62;41.49;101491.97;2100304;28;795;-57
2022/05/20 00:17:35;;;;;;;;;;;;;;;22.62;42.32;101499.22;2100157;28;1398;-58
2022/05/20 00:18:35;;;;;;;;;;;;;;;22.62;41.47;101493.81;2100310;28;1898;-57
2022/05/20 00:19:36;;;;;;;;;;;;;;;22.61;42.23;101492.91;2100656;28;841;-57
2022/05/20 00:20:36;;;;;;;;;;;;;;;22.60;41.62;101480.34;2100421;28;886;-58
2022/05/20 00:21:36;;;;;;;;;;;;;;;22.59;42.36;101483.09;2100306;28;796;-57
2022/05/20 00:22:37;;;;;;;;;;;;;;;22.59;42.09;101475.00;2100333;28;768;-57
2022/05/20 00:23:37;;;;;;;;;;;;;;;22.57;42.29;101480.44;2100367;28;629;-57
2022/05/20 00:25:45;;;;;;;;;;;;;;;22.58;42.41;101478.66;2100294;28;822;-57
2022/05/20 00:25:57;;;;;;;;;;;;;;;22.58;41.72;101478.66;2100130;28;1625;-58
2022/05/20 00:26:58;;;;;;;;;;;;;;;22.57;42.29;101483.16;2100237;28;1008;-57
2022/05/20 00:27:58;;;;;;;;;;;;;;;22.57;42.35;101474.16;2100163;28;843;-57
2022/05/20 00:28:58;;;;;;;;;;;;;;;22.56;42.67;101475.97;2100225;28;820;-57
2022/05/20 00:29:59;;;;;;;;;;;;;;;22.55;42.13;101481.44;2100216;28;920;-57
2022/05/20 00:31:07;;;;;;;;;;;;;;;22.55;41.86;101485.00;2100229;28;878;-57
2022/05/20 00:32:07;;;;;;;;;;;;;;;22.55;42.62;101482.31;2100223;28;842;-58
2022/05/20 00:33:08;;;;;;;;;;;;;;;22.55;42.27;101492.25;2100101;28;846;-58
2022/05/20 00:34:08;;;;;;;;;;;;;;;22.53;42.26;101488.69;2100262;28;847;-57
2022/05/20 00:35:09;;;;;;;;;;;;;;;22.52;42.38;101489.63;2100213;28;977;-57
2022/05/20 00:36:10;;;;;;;;;;;;;;;22.52;42.93;101486.94;2100209;28;850;-57
2022/05/20 00:37:10;;;;;;;;;;;;;;;22.51;42.71;101483.34;2100127;28;1180;-58
2022/05/20 00:38:10;;;;;;;;;;;;;;;22.50;42.76;101479.75;2100009;28;1963;-58
2022/05/20 00:39:10;;;;;;;;;;;;;;;22.50;42.25;101473.47;2100099;28;1001;-57
2022/05/20 00:40:12;;;;;;;;;;;;;;;22.49;42.18;101471.69;2100188;28;839;-58
2022/05/20 00:41:12;;;;;;;;;;;;;;;22.49;42.16;101474.41;2100115;28;949;-57
2022/05/20 00:42:14;;;;;;;;;;;;;;;22.49;42.61;101472.59;2100234;28;791;-57
2022/05/20 00:43:28;;;;;;;;;;;;;;;22.47;42.21;101466.38;2100639;28;788;-58
2022/05/20 00:44:28;;;;;;;;;;;;;;;22.47;43.08;101471.75;2100142;28;802;-57
2022/05/20 00:45:29;;;;;;;;;;;;;;;22.47;42.48;101463.66;2100104;28;779;-58
2022/05/20 00:46:29;;;;;;;;;;;;;;;22.47;43.10;101462.75;2100187;28;835;-57
2022/05/20 00:47:29;;;;;;;;;;;;;;;22.46;42.42;101470.00;2100196;28;1050;-57
2022/05/20 00:48:30;;;;;;;;;;;;;;;22.46;42.48;101474.50;2100135;28;902;-57
2022/05/20 00:49:31;;;;;;;;;;;;;;;22.45;42.93;101470.91;2100099;28;854;-58
2022/05/20 00:50:33;;;;;;;;;;;;;;;22.46;42.38;101474.50;2100130;28;897;-57
2022/05/20 00:51:36;;;;;;;;;;;;;;;22.45;42.61;101470.03;2100170;28;767;-57
2022/05/20 00:52:37;;;;;;;;;;;;;;;22.44;42.76;101471.84;2100169;28;890;-58
2022/05/20 00:53:40;;;;;;;;;;;;;;;22.45;42.64;101476.31;2100094;28;806;-58
2022/05/20 00:54:44;;;;;;;;;;;;;;;22.45;42.50;101478.13;2100118;28;794;-58
2022/05/20 00:55:44;;;;;;;;;;;;;;;22.45;42.73;101472.72;2107848;28;912;-58
2022/05/20 00:56:48;;;;;;;;;;;;;;;22.44;42.46;101476.34;2107948;28;720;-58
2022/05/20 00:57:54;;;;;;;;;;;;;;;22.43;43.33;101470.06;2100005;28;1898;-57
2022/05/20 00:58:55;;;;;;;;;;;;;;;22.43;42.57;101463.75;2101150;28;818;-58
2022/05/20 00:59:57;;;;;;;;;;;;;;;22.44;43.36;101462.84;2100131;28;849;-58
2022/05/20 01:00:59;;;;;;;;;;;;;;;22.43;42.58;101463.75;2100036;28;814;-57
2022/05/20 01:02:03;;;;;;;;;;;;;;;22.43;42.75;101464.66;2100034;28;917;-57
2022/05/20 01:03:06;;;;;;;;;;;;;;;22.42;42.87;101462.00;2100117;28;913;-58
2022/05/20 01:04:06;;;;;;;;;;;;;;;22.42;42.67;101459.28;2099761;28;767;-58
2022/05/20 01:05:11;;;;;;;;;;;;;;;22.42;43.02;101464.69;2099898;28;866;-57
2022/05/20 01:06:11;;;;;;;;;;;;;;;22.41;43.24;101463.81;2100058;28;893;-57
2022/05/20 01:07:12;;;;;;;;;;;;;;;22.42;42.96;101470.09;2100052;28;849;-58
2022/05/20 01:08:14;;;;;;;;;;;;;;;22.40;42.69;101464.75;2099979;28;802;-58
2022/05/20 01:09:14;;;;;;;;;;;;;;;22.40;43.61;101463.84;2100040;28;831;-57
2022/05/20 01:10:15;;;;;;;;;;;;;;;22.39;43.22;101459.38;2099953;28;1094;-58
2022/05/20 01:11:15;;;;;;;;;;;;;;;22.39;42.96;101462.97;2100023;28;783;-57
2022/05/20 01:12:15;;;;;;;;;;;;;;;22.39;42.77;101456.69;2099966;28;795;-57
2022/05/20 01:13:18;;;;;;;;;;;;;;;22.39;42.99;101459.38;2100510;28;851;-58
2022/05/20 01:14:23;;;;;;;;;;;;;;;22.39;43.07;101459.38;2100053;28;902;-57
2022/05/20 01:15:23;;;;;;;;;;;;;;;22.38;43.36;101447.72;2099991;28;846;-57
2022/05/20 01:16:23;;;;;;;;;;;;;;;22.36;43.49;101442.38;2099956;28;783;-58
2022/05/20 01:17:24;;;;;;;;;;;;;;;22.37;43.07;101445.94;2099782;28;1085;-57
2022/05/20 01:18:24;;;;;;;;;;;;;;;22.38;43.20;101447.72;2099928;28;1906;-57
2022/05/20 01:19:33;;;;;;;;;;;;;;;22.37;43.49;101445.94;2099914;28;771;-58
2022/05/20 01:20:37;;;;;;;;;;;;;;;22.36;42.94;101449.59;2099905;28;822;-58
2022/05/20 01:21:37;;;;;;;;;;;;;;;22.36;43.08;101453.19;2099949;28;780;-58
2022/05/20 01:22:40;;;;;;;;;;;;;;;22.36;42.77;101447.78;2099968;28;861;-58
2022/05/20 01:23:40;;;;;;;;;;;;;;;22.36;42.93;101446.88;2099996;28;900;-57
2022/05/20 01:24:41;;;;;;;;;;;;;;;22.35;42.88;101447.81;2099878;28;794;-58
2022/05/20 01:25:43;;;;;;;;;;;;;;;22.35;43.01;101451.41;2099893;28;779;-57
2022/05/20 01:26:43;;;;;;;;;;;;;;;22.35;43.68;101443.31;2099878;28;882;-57
2022/05/20 01:27:43;;;;;;;;;;;;;;;22.36;43.63;101441.47;2099933;28;854;-57
2022/05/20 01:28:44;;;;;;;;;;;;;;;22.38;43.63;101444.13;2100666;28;871;-57
2022/05/20 01:29:44;;;;;;;;;;;;;;;22.39;43.05;101443.19;2099908;28;767;-57
2022/05/20 01:30:55;;;;;;;;;;;;;;;22.38;43.50;101436.91;2090943;28;784;-57
2022/05/20 01:31:55;;;;;;;;;;;;;;;22.38;42.99;101436.91;2092573;28;803;-57
2022/05/20 01:32:55;;;;;;;;;;;;;;;22.39;42.96;101435.09;2099890;28;935;-58
2022/05/20 01:33:56;;;;;;;;;;;;;;;22.39;43.01;101443.19;2099967;28;858;-57
2022/05/20 01:34:56;;;;;;;;;;;;;;;22.37;43.26;101435.16;2099870;28;783;-57
2022/05/20 01:35:57;;;;;;;;;;;;;;;22.38;43.65;101441.41;2099957;28;783;-57
2022/05/20 01:36:58;;;;;;;;;;;;;;;22.38;43.77;101442.31;2099887;28;981;-57
2022/05/20 01:37:58;;;;;;;;;;;;;;;22.36;43.52;101436.97;2099928;28;1906;-57
2022/05/20 01:38:59;;;;;;;;;;;;;;;22.36;43.62;101434.28;2099921;28;948;-57
2022/05/20 01:40:00;;;;;;;;;;;;;;;22.35;43.31;101432.53;2099794;28;835;-58
2022/05/20 01:41:02;;;;;;;;;;;;;;;22.35;42.94;101435.22;2099932;28;779;-57
2022/05/20 01:42:06;;;;;;;;;;;;;;;22.35;43.27;101435.22;2099822;28;1007;-57
2022/05/20 01:43:09;;;;;;;;;;;;;;;22.34;43.53;101425.34;2099856;28;882;-57
2022/05/20 01:44:12;;;;;;;;;;;;;;;22.34;43.03;101417.25;2099879;28;918;-57
2022/05/20 01:45:17;;;;;;;;;;;;;;;22.35;43.22;101426.22;2099969;28;923;-57
2022/05/20 01:46:18;;;;;;;;;;;;;;;22.34;43.06;101422.66;2100010;28;874;-57
2022/05/20 01:47:28;;;;;;;;;;;;;;;22.35;43.09;101418.13;2099831;28;866;-58
2022/05/20 01:48:37;;;;;;;;;;;;;;;22.34;43.63;101422.66;2099887;28;877;-57
2022/05/20 01:49:41;;;;;;;;;;;;;;;22.35;43.57;101419.03;2099981;28;878;-58
2022/05/20 01:50:48;;;;;;;;;;;;;;;22.34;43.18;101414.56;2099724;28;858;-58
2022/05/20 01:52:00;;;;;;;;;;;;;;;22.35;43.02;101415.44;2099921;28;896;-57
2022/05/20 01:53:17;;;;;;;;;;;;;;;22.35;43.52;101413.63;2099907;28;993;-57
2022/05/20 01:54:23;;;;;;;;;;;;;;;22.35;43.17;101410.03;2099890;28;800;-57
2022/05/20 01:55:23;;;;;;;;;;;;;;;22.34;43.37;101413.66;2099817;28;1033;-58
2022/05/20 01:56:29;;;;;;;;;;;;;;;22.34;43.46;101413.66;2099754;28;854;-58
2022/05/20 01:57:48;;;;;;;;;;;;;;;22.33;43.95;101412.78;2099898;28;854;-58
2022/05/20 01:59:14;;;;;;;;;;;;;;;22.34;43.04;101416.34;2099809;28;810;-58
2022/05/20 02:00:18;;;;;;;;;;;;;;;22.32;43.81;101418.22;2096573;28;2089;-59
2022/05/20 02:01:21;;;;;;;;;;;;;;;22.33;44.01;101422.69;2099993;28;823;-59
2022/05/20 02:02:26;;;;;;;;;;;;;;;22.32;43.25;101424.50;2099794;28;858;-57
2022/05/20 02:03:30;;;;;;;;;;;;;;;22.32;43.78;101419.13;2099861;28;854;-57
2022/05/20 02:04:56;;;;;;;;;;;;;;;22.32;43.26;101426.31;2099753;28;1099;-57
2022/05/20 02:06:02;;;;;;;;;;;;;;;22.33;44.09;101420.88;2074015;28;1294;-57
2022/05/20 02:07:05;;;;;;;;;;;;;;;22.31;43.58;101420.06;2065964;28;950;-57
2022/05/20 02:08:09;;;;;;;;;;;;;;;22.32;43.67;101421.81;2066328;28;1040;-58
2022/05/20 02:09:12;;;;;;;;;;;;;;;22.33;44.04;101409.19;2074170;28;868;-57
2022/05/20 02:10:18;;;;;;;;;;;;;;;22.33;43.74;101414.59;2074062;28;994;-57
2022/05/20 02:11:22;;;;;;;;;;;;;;;22.32;43.45;101413.72;2074142;28;941;-59
2022/05/20 02:12:25;;;;;;;;;;;;;;;22.32;43.97;101411.03;2074183;28;808;-57
2022/05/20 02:13:28;;;;;;;;;;;;;;;22.32;43.43;101405.63;2074532;28;851;-58
2022/05/20 02:14:30;;;;;;;;;;;;;;;22.32;43.34;101412.81;2074194;28;780;-57
2022/05/20 02:15:30;;;;;;;;;;;;;;;22.32;43.61;101412.81;2074171;28;889;-57
2022/05/20 02:16:33;;;;;;;;;;;;;;;22.31;43.30;101411.06;2074689;28;862;-57
2022/05/20 02:17:34;;;;;;;;;;;;;;;22.31;43.94;101409.25;2075512;28;1142;-58
2022/05/20 02:18:38;;;;;;;;;;;;;;;22.30;43.47;101412.00;2075681;28;1910;-57
2022/05/20 02:19:44;;;;;;;;;;;;;;;22.30;43.27;101409.28;2067427;28;1175;-58
2022/05/20 02:20:48;;;;;;;;;;;;;;;22.30;43.65;101415.59;2068302;28;933;-57
2022/05/20 02:21:53;;;;;;;;;;;;;;;22.30;44.04;101410.19;2075691;28;894;-58
2022/05/20 02:22:55;;;;;;;;;;;;;;;22.31;43.52;101409.25;2075666;28;1072;-57
2022/05/20 02:23:58;;;;;;;;;;;;;;;22.31;43.36;101413.75;2075700;28;881;-57
2022/05/20 02:24:59;;;;;;;;;;;;;;;22.32;43.30;101410.13;2075593;28;860;-58
2022/05/20 02:26:05;;;;;;;;;;;;;;;22.32;43.40;101399.31;2075600;28;957;-58
2022/05/20 02:27:06;;;;;;;;;;;;;;;22.31;43.71;101405.66;2075721;28;994;-58
2022/05/20 02:28:13;;;;;;;;;;;;;;;22.31;44.10;101403.84;2075705;28;883;-57
2022/05/20 02:29:16;;;;;;;;;;;;;;;22.30;43.91;101396.69;2075649;28;811;-57
2022/05/20 02:30:18;;;;;;;;;;;;;;;22.30;43.67;101391.28;2075766;28;989;-57
2022/05/20 02:31:28;;;;;;;;;;;;;;;22.30;44.20;101394.00;2075645;28;1184;-57
2022/05/20 02:32:30;;;;;;;;;;;;;;;22.30;44.26;101391.28;2075683;28;1053;-57
2022/05/20 02:33:31;;;;;;;;;;;;;;;22.29;44.07;101384.13;2075665;28;811;-58
2022/05/20 02:34:34;;;;;;;;;;;;;;;22.28;43.36;101382.38;2075694;28;894;-57
2022/05/20 02:35:35;;;;;;;;;;;;;;;22.29;43.45;101377.84;2075715;28;922;-58
2022/05/20 02:36:35;;;;;;;;;;;;;;;22.29;43.56;101373.34;2075480;28;914;-57
2022/05/20 02:37:36;;;;;;;;;;;;;;;22.29;44.02;101376.03;2075440;28;1335;-57
2022/05/20 02:38:36;;;;;;;;;;;;;;;22.28;43.69;101371.56;2075465;28;1973;-57
2022/05/20 02:39:37;;;;;;;;;;;;;;;22.28;44.12;101371.56;2075658;28;811;-57
2022/05/20 02:40:38;;;;;;;;;;;;;;;22.29;43.40;101367.94;2075592;28;996;-57
2022/05/20 02:41:38;;;;;;;;;;;;;;;22.29;43.47;101357.13;2075549;28;792;-57
2022/05/20 02:42:38;;;;;;;;;;;;;;;22.29;43.48;101358.94;2075484;28;1029;-57
2022/05/20 02:43:38;;;;;;;;;;;;;;;22.29;43.66;101351.75;2088038;28;934;-57
2022/05/20 02:44:38;;;;;;;;;;;;;;;22.28;43.69;101355.38;2092758;28;997;-58
2022/05/20 02:45:39;;;;;;;;;;;;;;;22.29;44.21;101351.75;2092820;28;754;-57
2022/05/20 02:46:41;;;;;;;;;;;;;;;22.28;43.72;101349.97;2092788;28;854;-57
2022/05/20 02:47:41;;;;;;;;;;;;;;;22.28;44.21;101349.97;2092849;28;829;-58
2022/05/20 02:48:41;;;;;;;;;;;;;;;22.28;44.11;101349.97;2092671;28;843;-57
2022/05/20 02:49:41;;;;;;;;;;;;;;;22.27;43.75;101350.91;2092849;28;843;-57
2022/05/20 02:50:42;;;;;;;;;;;;;;;22.28;44.17;101343.69;2092160;28;874;-57
2022/05/20 02:51:42;;;;;;;;;;;;;;;22.28;44.05;101349.06;2092169;28;996;-57
2022/05/20 02:52:42;;;;;;;;;;;;;;;22.28;44.30;101338.28;2092748;28;972;-58
2022/05/20 02:53:44;;;;;;;;;;;;;;;22.27;44.22;101334.72;2092749;28;980;-57
2022/05/20 02:54:44;;;;;;;;;;;;;;;22.27;43.70;101326.63;2092844;28;834;-57
2022/05/20 02:55:44;;;;;;;;;;;;;;;22.28;43.53;101332.88;2092690;28;785;-57
2022/05/20 02:56:45;;;;;;;;;;;;;;;22.27;43.71;101326.63;2092953;28;933;-57
2022/05/20 02:57:45;;;;;;;;;;;;;;;22.28;43.84;101323.00;2092875;28;1889;-58
2022/05/20 03:04:12;;;;;;;;;;;;;;;22.27;43.94;101258.25;2092741;28;768;-57
2022/05/20 03:05:12;;;;;;;;;;;;;;;22.26;43.40;101257.38;2092629;28;806;-58
2022/05/20 03:06:13;;;;;;;;;;;;;;;22.27;44.09;101242.97;2092725;28;905;-57
2022/05/20 03:07:13;;;;;;;;;;;;;;;22.28;44.21;101257.31;2092536;28;989;-58
2022/05/20 03:08:13;;;;;;;;;;;;;;;22.29;44.32;101337.34;2092656;28;930;-58
2022/05/20 03:09:15;;;;;;;;;;;;;;;22.29;43.48;101308.56;2092628;28;977;-57
2022/05/20 03:10:15;;;;;;;;;;;;;;;22.28;44.29;101296.00;2092665;28;811;-57
2022/05/20 03:11:15;;;;;;;;;;;;;;;22.27;43.78;101294.25;2092565;28;611;-58
2022/05/20 03:12:15;;;;;;;;;;;;;;;22.28;43.82;101295.09;2092837;28;760;-57
2022/05/20 03:13:16;;;;;;;;;;;;;;;22.27;43.69;101291.53;2092606;28;877;-58
2022/05/20 03:14:18;;;;;;;;;;;;;;;22.28;44.42;101295.09;2092504;28;771;-58
2022/05/20 03:15:20;;;;;;;;;;;;;;;22.29;43.95;101299.56;2092596;28;1040;-57
2022/05/20 03:16:20;;;;;;;;;;;;;;;22.27;44.30;101296.94;2092599;28;827;-58
2022/05/20 03:17:20;;;;;;;;;;;;;;;22.27;43.70;101301.44;2091865;28;1247;-57
2022/05/20 03:18:20;;;;;;;;;;;;;;;22.27;44.28;101301.44;2091887;28;2044;-58
2022/05/20 03:19:20;;;;;;;;;;;;;;;22.26;43.65;101296.97;2092501;28;981;-56
2022/05/20 03:20:21;;;;;;;;;;;;;;;22.26;44.10;101302.38;2092548;28;831;-57
2022/05/20 03:21:21;;;;;;;;;;;;;;;22.26;43.73;101303.28;2092517;28;846;-57
2022/05/20 03:22:21;;;;;;;;;;;;;;;22.26;43.78;101299.66;2092537;28;811;-57
2022/05/20 03:23:22;;;;;;;;;;;;;;;22.27;43.59;101296.03;2092557;28;1009;-57
2022/05/20 03:24:22;;;;;;;;;;;;;;;22.26;44.22;101291.56;2092619;28;783;-57
2022/05/20 03:25:22;;;;;;;;;;;;;;;22.26;44.36;101288.88;2092520;28;803;-57
2022/05/20 03:26:22;;;;;;;;;;;;;;;22.26;43.62;101287.06;2092302;28;945;-57
2022/05/20 03:27:23;;;;;;;;;;;;;;;22.26;44.23;101283.47;2091406;28;1119;-58
2022/05/20 03:28:23;;;;;;;;;;;;;;;22.26;44.35;101280.78;2092421;28;854;-57
2022/05/20 03:29:23;;;;;;;;;;;;;;;22.26;43.92;101281.69;2092426;28;822;-57
2022/05/20 03:30:24;;;;;;;;;;;;;;;22.26;43.66;101278.06;2092425;28;831;-57
2022/05/20 03:31:24;;;;;;;;;;;;;;;22.26;43.98;101280.78;2092448;28;988;-58
2022/05/20 03:32:24;;;;;;;;;;;;;;;22.25;44.14;101268.22;2092388;28;787;-58
2022/05/20 03:33:25;;;;;;;;;;;;;;;22.25;43.70;101281.72;2092462;28;1060;-57
2022/05/20 03:34:25;;;;;;;;;;;;;;;22.26;43.92;101286.19;2091903;28;815;-57
2022/05/20 03:35:25;;;;;;;;;;;;;;;22.25;43.85;101301.50;2091971;28;973;-57
2022/05/20 03:36:26;;;;;;;;;;;;;;;22.25;43.78;101298.81;2092362;28;886;-56
2022/05/20 03:37:26;;;;;;;;;;;;;;;22.25;43.75;101303.31;2092425;28;981;-56
2022/05/20 03:38:26;;;;;;;;;;;;;;;22.25;43.70;101301.50;2092445;28;1894;-58
2022/05/20 03:39:26;;;;;;;;;;;;;;;22.25;44.45;101304.19;2091691;28;1474;-57
2022/05/20 03:40:26;;;;;;;;;;;;;;;22.25;44.05;101308.69;2091849;28;878;-59
2022/05/20 03:41:27;;;;;;;;;;;;;;;22.25;44.08;101300.59;2091810;28;823;-58
2022/05/20 03:42:27;;;;;;;;;;;;;;;22.26;44.66;101299.66;2092259;28;862;-58
2022/05/20 03:43:28;;;;;;;;;;;;;;;22.26;44.59;101294.28;2091726;28;1122;-57
2022/05/20 03:44:28;;;;;;;;;;;;;;;22.25;44.23;101296.09;2092371;28;985;-57
2022/05/20 03:45:28;;;;;;;;;;;;;;;22.25;44.07;101292.50;2092282;28;1040;-57
2022/05/20 03:46:28;;;;;;;;;;;;;;;22.26;43.66;101289.78;2092420;28;1021;-58
2022/05/20 03:47:28;;;;;;;;;;;;;;;22.26;44.06;101288.88;2092349;28;760;-57
2022/05/20 03:48:28;;;;;;;;;;;;;;;22.25;44.05;101288.00;2092228;28;989;-57
2022/05/20 03:49:29;;;;;;;;;;;;;;;22.25;43.85;101292.50;2092469;28;890;-56
2022/05/20 03:50:30;;;;;;;;;;;;;;;22.24;44.35;101290.75;2092282;28;842;-57
2022/05/20 03:51:30;;;;;;;;;;;;;;;22.25;44.08;101289.81;2092285;28;803;-58
2022/05/20 03:52:30;;;;;;;;;;;;;;;22.24;44.03;101294.34;2092296;28;814;-57
2022/05/20 03:53:30;;;;;;;;;;;;;;;22.24;43.93;101301.53;2092434;28;783;-57
2022/05/20 03:54:34;;;;;;;;;;;;;;;22.24;44.06;101299.75;2092254;28;835;-57
2022/05/20 03:55:35;;;;;;;;;;;;;;;22.24;43.84;101302.44;2092248;28;835;-57
2022/05/20 03:56:35;;;;;;;;;;;;;;;22.23;44.54;101300.66;2092442;28;1049;-57
2022/05/20 03:57:35;;;;;;;;;;;;;;;22.23;44.47;101303.38;2092429;28;984;-56
2022/05/20 03:58:35;;;;;;;;;;;;;;;22.24;44.38;101306.94;2092098;28;1882;-57
2022/05/20 03:59:36;;;;;;;;;;;;;;;22.24;44.40;101304.22;2092256;28;1033;-58
2022/05/20 04:01:59;;;;;;;;;;;;;;;23.09;41.95;101299.50;2092276;28;685;-57
2022/05/20 04:03:00;;;;;;;;;;;;;;;24.10;39.74;101303.78;2092332;28;870;-58
2022/05/20 04:04:01;;;;;;;;;;;;;;;24.75;38.27;101310.13;2092122;28;806;-58
2022/05/20 04:05:01;;;;;;;;;;;;;;;25.14;38.15;101296.63;2092076;28;839;-58
2022/05/20 04:06:01;;;;;;;;;;;;;;;25.56;36.58;101302.88;2092056;28;843;-58
2022/05/20 04:07:03;;;;;;;;;;;;;;;25.90;36.33;101295.84;2092047;28;965;-58
2022/05/20 04:08:03;;;;;;;;;;;;;;;26.10;35.26;101291.22;2092004;28;882;-59
2022/05/20 04:09:05;;;;;;;;;;;;;;;26.37;34.79;101279.97;2092075;28;803;-59
2022/05/20 04:10:06;;;;;;;;;;;;;;;26.67;34.33;101289.31;2091986;28;866;-58
2022/05/20 04:11:11;;;;;;;;;;;;;;;26.81;34.20;101285.88;2091977;28;1228;-58
2022/05/20 04:12:15;;;;;;;;;;;;;;;26.86;33.86;101281.09;2092581;28;815;-58
2022/05/20 04:13:16;;;;;;;;;;;;;;;26.96;33.44;101290.53;2093383;28;843;-58
2022/05/20 04:14:16;;;;;;;;;;;;;;;27.23;32.94;101284.53;2092032;28;923;-58
2022/05/20 04:15:16;;;;;;;;;;;;;;;27.46;33.04;101272.38;2091406;28;1071;-58
2022/05/20 04:16:16;;;;;;;;;;;;;;;27.53;32.50;101278.38;2091416;28;795;-58
2022/05/20 04:17:17;;;;;;;;;;;;;;;27.79;32.75;101282.34;2095151;28;1066;-58
2022/05/20 04:18:17;;;;;;;;;;;;;;;27.97;32.08;101287.66;2100154;28;1976;-57
2022/05/20 04:19:17;;;;;;;;;;;;;;;28.10;31.36;101285.13;2100241;28;1182;-57
2022/05/20 04:20:17;;;;;;;;;;;;;;;28.19;31.68;101279.19;2100233;28;843;-57
2022/05/20 04:21:17;;;;;;;;;;;;;;;28.38;31.07;101288.94;2100182;28;779;-57
2022/05/20 04:22:24;;;;;;;;;;;;;;;28.68;30.90;101286.22;2100291;28;970;-58
2022/05/20 04:23:24;;;;;;;;;;;;;;;28.87;30.27;101289.69;2100146;28;787;-57
2022/05/20 04:24:24;;;;;;;;;;;;;;;28.87;30.06;101281.50;2100178;28;886;-58
2022/05/20 04:25:24;;;;;;;;;;;;;;;28.89;30.63;101287.75;2100168;28;961;-58
2022/05/20 04:26:25;;;;;;;;;;;;;;;29.07;30.14;101274.81;2091343;28;1603;-57
2022/05/20 04:27:27;;;;;;;;;;;;;;;29.00;29.99;101277.03;2091354;28;843;-58
2022/05/20 04:28:27;;;;;;;;;;;;;;;29.11;30.24;101279.97;2100881;28;815;-57
2022/05/20 04:29:27;;;;;;;;;;;;;;;29.07;29.98;101272.97;2099758;28;989;-58
2022/05/20 04:30:27;;;;;;;;;;;;;;;29.34;29.27;101280.38;2099930;28;792;-58
2022/05/20 04:31:28;;;;;;;;;;;;;;;29.52;29.45;101270.13;2099717;28;990;-58
2022/05/20 04:32:28;;;;;;;;;;;;;;;29.51;29.06;101271.13;2090787;28;957;-58
2022/05/20 04:33:28;;;;;;;;;;;;;;;29.44;29.17;101275.22;2090820;28;1376;-58
2022/05/20 04:34:29;;;;;;;;;;;;;;;29.64;29.44;101276.63;2090872;28;791;-58
2022/05/20 04:35:29;;;;;;;;;;;;;;;29.57;28.97;101264.38;2099680;28;839;-58
2022/05/20 04:36:29;;;;;;;;;;;;;;;29.67;28.61;101270.13;2099707;28;1156;-58
2022/05/20 04:37:29;;;;;;;;;;;;;;;29.79;29.11;101273.88;2099768;28;1305;-58
2022/05/20 04:38:29;;;;;;;;;;;;;;;29.82;28.56;101262.75;2090653;28;1890;-59
2022/05/20 04:39:29;;;;;;;;;;;;;;;29.90;28.66;101268.59;2090040;28;1060;-58
2022/05/20 04:40:30;;;;;;;;;;;;;;;29.98;28.81;101266.25;2099588;28;1047;-58
2022/05/20 04:46:57;;;;;;;;;;;;;;;30.45;27.89;101261.22;2099683;28;596;-57
2022/05/20 04:48:00;;;;;;;;;;;;;;;30.60;27.95;101264.81;2099674;28;882;-57
2022/05/20 04:49:00;;;;;;;;;;;;;;;30.85;27.05;101268.53;2099672;28;811;-58
2022/05/20 04:50:00;;;;;;;;;;;;;;;30.86;27.48;101264.81;2099551;28;972;-58
2022/05/20 04:51:01;;;;;;;;;;;;;;;31.04;26.85;101259.88;2090699;28;954;-57
2022/05/20 04:52:01;;;;;;;;;;;;;;;31.08;26.90;101255.06;2090738;28;868;-58
2022/05/20 04:53:01;;;;;;;;;;;;;;;31.12;26.74;101258.44;2099506;28;981;-58
2022/05/20 04:55:20;;;;;;;;;;;;;;;31.22;26.53;101253.19;2099801;28;645;-57
2022/05/20 04:56:20;;;;;;;;;;;;;;;31.31;26.79;101258.00;2100269;28;781;-58
2022/05/20 04:57:26;;;;;;;;;;;;;;;31.22;26.33;101255.94;2099546;28;799;-58
2022/05/20 04:58:26;;;;;;;;;;;;;;;31.31;26.63;101258.00;2099538;28;1949;-57
2022/05/20 04:59:26;;;;;;;;;;;;;;;31.27;26.15;101251.91;2099727;28;716;-58
2022/05/20 05:00:28;;;;;;;;;;;;;;;31.24;26.39;101262.19;2099533;28;969;-58
2022/05/20 05:01:28;;;;;;;;;;;;;;;31.30;26.39;101267.19;2099693;28;1004;-58
2022/05/20 05:02:28;;;;;;;;;;;;;;;31.24;26.45;101267.66;2099644;28;853;-57
2022/05/20 05:03:29;;;;;;;;;;;;;;;31.50;26.02;101272.09;2099596;28;763;-58
2022/05/20 05:04:29;;;;;;;;;;;;;;;31.52;25.95;101271.09;2099519;28;834;-58
2022/05/20 05:05:29;;;;;;;;;;;;;;;31.46;25.76;101273.31;2099527;28;767;-58
2022/05/20 05:06:30;;;;;;;;;;;;;;;31.50;26.14;101273.97;2099680;28;942;-58
2022/05/20 05:07:30;;;;;;;;;;;;;;;31.60;26.04;101264.06;2099545;28;772;-57
2022/05/20 05:08:30;;;;;;;;;;;;;;;31.52;26.19;101271.97;2099580;28;815;-58
2022/05/20 05:09:30;;;;;;;;;;;;;;;31.54;26.38;101278.22;2099495;28;674;-58
2022/05/20 05:10:31;;;;;;;;;;;;;;;31.44;25.87;101263.47;2099621;28;783;-58
2022/05/20 05:11:31;;;;;;;;;;;;;;;31.52;25.79;101263.75;2099804;28;776;-58
2022/05/20 05:12:32;;;;;;;;;;;;;;;31.64;25.68;101268.31;2099463;28;897;-58
2022/05/20 05:13:32;;;;;;;;;;;;;;;31.53;25.96;101270.13;2099544;28;830;-57
2022/05/20 05:14:36;;;;;;;;;;;;;;;31.54;25.87;101274.63;2099438;28;1043;-58
2022/05/20 05:15:36;;;;;;;;;;;;;;;31.62;25.80;101272.19;2099482;28;747;-58
2022/05/20 05:16:37;;;;;;;;;;;;;;;31.74;25.46;101274.03;2099473;28;830;-58
2022/05/20 05:18:56;;;;;;;;;;;;;;;31.63;25.67;101287.63;2105145;28;636;-58
2022/05/20 05:19:56;;;;;;;;;;;;;;;31.84;25.04;101287.03;2099433;28;902;-57
2022/05/20 05:20:56;;;;;;;;;;;;;;;31.91;25.27;101282.84;2099463;28;969;-58
2022/05/20 05:21:56;;;;;;;;;;;;;;;31.72;25.65;101292.41;2099498;28;1016;-58
2022/05/20 05:22:57;;;;;;;;;;;;;;;31.86;25.53;101285.94;2099432;28;776;-57
2022/05/20 05:24:00;;;;;;;;;;;;;;;31.93;25.03;101280.84;2099515;28;768;-57
2022/05/20 05:25:00;;;;;;;;;;;;;;;31.94;24.88;101285.34;2100121;28;836;-57
2022/05/20 05:26:01;;;;;;;;;;;;;;;31.81;25.20;101282.66;2099459;28;897;-58
2022/05/20 05:27:01;;;;;;;;;;;;;;;31.87;25.29;101276.72;2099383;28;851;-58
2022/05/20 05:28:02;;;;;;;;;;;;;;;31.88;25.33;101289.44;2090589;28;1187;-58
2022/05/20 05:29:04;;;;;;;;;;;;;;;31.98;24.83;101284.13;2090607;28;993;-58
2022/05/20 05:30:04;;;;;;;;;;;;;;;31.77;25.32;101283.88;2099434;28;886;-57
2022/05/20 05:31:05;;;;;;;;;;;;;;;31.96;24.85;101285.25;2099338;28;1210;-58
2022/05/20 05:32:05;;;;;;;;;;;;;;;31.95;24.92;101281.63;2099360;28;819;-58
2022/05/20 05:33:05;;;;;;;;;;;;;;;31.85;25.33;101281.44;2099428;28;857;-57
2022/05/20 05:34:06;;;;;;;;;;;;;;;31.76;25.19;101288.50;2099421;28;874;-58
2022/05/20 05:35:08;;;;;;;;;;;;;;;31.78;25.31;101288.38;2099497;28;807;-57
2022/05/20 05:36:08;;;;;;;;;;;;;;;31.78;25.20;101289.25;2099392;28;807;-58
2022/05/20 05:37:10;;;;;;;;;;;;;;;31.91;25.14;101294.69;2090424;28;891;-58
2022/05/20 05:38:11;;;;;;;;;;;;;;;31.88;24.97;101294.00;2082263;28;1886;-58
2022/05/20 05:39:11;;;;;;;;;;;;;;;31.93;25.04;101297.28;2090497;28;976;-57